createdAt,value
2022-11-05T00:00:24.167Z,8.56
2022-11-05T00:01:23.424Z,8.52
2022-11-05T00:02:23.638Z,8.52
2022-11-05T00:03:23.571Z,8.50
2022-11-05T00:04:28.247Z,8.48
2022-11-05T00:05:25.562Z,8.47
2022-11-05T00:06:23.671Z,8.45
2022-11-05T00:07:43.433Z,8.44
2022-11-05T00:08:23.679Z,8.44
2022-11-05T00:09:23.472Z,8.41
2022-11-05T00:10:23.662Z,8.38
2022-11-05T00:11:23.402Z,8.34
2022-11-05T00:12:23.642Z,8.33
2022-11-05T00:13:23.382Z,8.29
2022-11-05T00:14:23.620Z,8.28
2022-11-05T00:15:23.383Z,8.25
2022-11-05T00:16:23.622Z,8.23
2022-11-05T00:17:43.402Z,8.23
2022-11-05T00:18:23.620Z,8.20
2022-11-05T00:19:23.361Z,8.19
2022-11-05T00:20:23.600Z,8.19
2022-11-05T00:21:23.352Z,8.15
2022-11-05T00:22:23.600Z,8.16
2022-11-05T00:23:23.355Z,8.15
2022-11-05T00:24:24.442Z,8.12
2022-11-05T00:25:23.323Z,8.11
2022-11-05T00:26:23.567Z,8.11
2022-11-05T00:27:43.330Z,8.10
2022-11-05T00:28:23.572Z,8.10
2022-11-05T00:29:23.306Z,8.11
2022-11-05T00:30:23.566Z,8.10
2022-11-05T00:31:23.299Z,8.12
2022-11-05T00:32:23.548Z,8.10
2022-11-05T00:33:23.294Z,8.10
2022-11-05T00:34:23.539Z,8.12
2022-11-05T00:35:23.286Z,8.11
2022-11-05T00:36:23.036Z,8.11
2022-11-05T00:37:48.719Z,8.12
2022-11-05T00:38:24.025Z,8.11
2022-11-05T00:39:23.286Z,8.11
2022-11-05T00:40:23.036Z,8.12
2022-11-05T00:41:23.268Z,8.11
2022-11-05T00:42:23.018Z,8.12
2022-11-05T00:43:23.266Z,8.10
2022-11-05T00:44:22.990Z,8.10
2022-11-05T00:45:23.228Z,8.10
2022-11-05T00:46:22.997Z,8.11
2022-11-05T00:47:43.253Z,8.11
2022-11-05T00:48:22.986Z,8.08
2022-11-05T00:49:23.228Z,8.07
2022-11-05T00:50:22.977Z,8.07
2022-11-05T00:51:23.222Z,8.05
2022-11-05T00:52:22.983Z,8.07
2022-11-05T00:53:23.229Z,8.05
2022-11-05T00:54:22.975Z,8.04
2022-11-05T00:55:23.226Z,8.02
2022-11-05T00:56:22.967Z,8.02
2022-11-05T00:57:43.226Z,8.00
2022-11-05T00:58:22.936Z,7.98
2022-11-05T00:59:23.189Z,7.97
2022-11-05T01:00:22.956Z,7.95
2022-11-05T01:01:23.254Z,7.95
2022-11-05T01:02:23.124Z,7.95
2022-11-05T01:03:23.181Z,7.95
2022-11-05T01:04:22.918Z,7.95
2022-11-05T01:05:23.151Z,7.92
2022-11-05T01:06:22.891Z,7.95
2022-11-05T01:07:43.168Z,7.90
2022-11-05T01:08:22.886Z,7.90
2022-11-05T01:09:23.130Z,7.89
2022-11-05T01:10:22.901Z,7.86
2022-11-05T01:11:23.120Z,7.86
2022-11-05T01:12:22.867Z,7.85
2022-11-05T01:13:23.137Z,7.83
2022-11-05T01:14:22.864Z,7.83
2022-11-05T01:15:23.108Z,7.83
2022-11-05T01:16:22.858Z,7.80
2022-11-05T01:17:43.112Z,7.79
2022-11-05T01:18:22.832Z,7.77
2022-11-05T01:19:23.080Z,7.75
2022-11-05T01:20:22.829Z,7.74
2022-11-05T01:21:22.572Z,7.72
2022-11-05T01:22:22.816Z,7.72
2022-11-05T01:23:23.074Z,7.68
2022-11-05T01:24:22.827Z,7.68
2022-11-05T01:25:22.557Z,7.64
2022-11-05T01:26:22.820Z,7.67
2022-11-05T01:27:42.574Z,7.63
2022-11-05T01:28:22.843Z,7.61
2022-11-05T01:29:22.546Z,7.61
2022-11-05T01:30:22.786Z,7.60
2022-11-05T01:31:22.547Z,7.57
2022-11-05T01:32:23.137Z,7.57
2022-11-05T01:33:22.556Z,7.57
2022-11-05T01:34:22.802Z,7.55
2022-11-05T01:35:22.525Z,7.55
2022-11-05T01:36:22.775Z,7.53
2022-11-05T01:37:42.544Z,7.50
2022-11-05T01:38:22.759Z,7.49
2022-11-05T01:39:22.521Z,7.46
2022-11-05T01:40:22.771Z,7.42
2022-11-05T01:41:22.738Z,7.40
2022-11-05T01:42:22.759Z,7.37
2022-11-05T01:43:22.513Z,7.35
2022-11-05T01:44:22.751Z,7.35
2022-11-05T01:45:22.482Z,7.35
2022-11-05T01:46:22.731Z,7.34
2022-11-05T01:47:42.497Z,7.35
2022-11-05T01:48:22.706Z,7.35
2022-11-05T01:49:22.446Z,7.37
2022-11-05T01:50:22.707Z,7.34
2022-11-05T01:51:22.457Z,7.34
2022-11-05T01:52:22.689Z,7.32
2022-11-05T01:53:22.441Z,7.32
2022-11-05T01:54:22.692Z,7.32
2022-11-05T01:55:22.429Z,7.32
2022-11-05T01:56:22.679Z,7.30
2022-11-05T01:57:42.422Z,7.31
2022-11-05T01:58:22.675Z,7.28
2022-11-05T01:59:22.419Z,7.27
2022-11-05T02:00:22.679Z,7.27
2022-11-05T02:01:22.510Z,7.25
2022-11-05T02:02:22.359Z,7.25
2022-11-05T02:03:22.397Z,7.24
2022-11-05T02:04:22.153Z,7.23
2022-11-05T02:05:22.394Z,7.23
2022-11-05T02:06:22.136Z,7.21
2022-11-05T02:07:42.399Z,7.20
2022-11-05T02:08:22.140Z,7.17
2022-11-05T02:09:22.365Z,7.20
2022-11-05T02:10:22.130Z,7.20
2022-11-05T02:11:22.354Z,7.17
2022-11-05T02:12:22.102Z,7.17
2022-11-05T02:13:22.351Z,7.16
2022-11-05T02:14:22.097Z,7.16
2022-11-05T02:15:22.348Z,7.15
2022-11-05T02:16:22.084Z,7.13
2022-11-05T02:17:42.369Z,7.15
2022-11-05T02:18:22.082Z,7.12
2022-11-05T02:19:22.326Z,7.10
2022-11-05T02:20:22.067Z,7.10
2022-11-05T02:21:22.322Z,7.10
2022-11-05T02:22:22.054Z,7.09
2022-11-05T02:23:22.296Z,7.09
2022-11-05T02:24:22.047Z,7.09
2022-11-05T02:25:22.297Z,7.09
2022-11-05T02:26:22.025Z,7.10
2022-11-05T02:27:42.282Z,7.07
2022-11-05T02:28:22.024Z,7.09
2022-11-05T02:29:22.275Z,7.07
2022-11-05T02:30:22.026Z,7.07
2022-11-05T02:31:22.277Z,7.09
2022-11-05T02:32:22.039Z,7.06
2022-11-05T02:33:22.280Z,7.06
2022-11-05T02:34:22.037Z,7.05
2022-11-05T02:35:22.280Z,7.03
2022-11-05T02:36:22.026Z,7.05
2022-11-05T02:37:42.287Z,7.02
2022-11-05T02:38:22.013Z,7.02
2022-11-05T02:39:22.261Z,7.03
2022-11-05T02:40:22.007Z,7.02
2022-11-05T02:41:22.241Z,7.03
2022-11-05T02:42:21.986Z,7.02
2022-11-05T02:43:22.220Z,6.99
2022-11-05T02:44:21.957Z,6.99
2022-11-05T02:45:22.221Z,6.98
2022-11-05T02:46:21.957Z,6.98
2022-11-05T02:47:42.219Z,6.99
2022-11-05T02:48:21.938Z,6.98
2022-11-05T02:49:21.688Z,6.98
2022-11-05T02:50:21.930Z,6.95
2022-11-05T02:51:22.170Z,6.97
2022-11-05T02:52:21.899Z,6.98
2022-11-05T02:53:21.651Z,6.95
2022-11-05T02:54:21.883Z,6.97
2022-11-05T02:55:21.631Z,6.95
2022-11-05T02:56:21.873Z,6.95
2022-11-05T02:57:42.139Z,6.95
2022-11-05T02:58:21.871Z,6.94
2022-11-05T02:59:21.599Z,6.92
2022-11-05T03:00:21.854Z,6.91
2022-11-05T03:01:21.694Z,6.89
2022-11-05T03:02:22.067Z,6.89
2022-11-05T03:03:21.604Z,6.89
2022-11-05T03:04:21.844Z,6.88
2022-11-05T03:05:21.594Z,6.85
2022-11-05T03:06:21.842Z,6.87
2022-11-05T03:07:41.594Z,6.84
2022-11-05T03:08:21.868Z,6.84
2022-11-05T03:09:21.669Z,6.85
2022-11-05T03:10:21.919Z,6.81
2022-11-05T03:11:21.628Z,6.81
2022-11-05T03:12:21.929Z,6.81
2022-11-05T03:13:21.684Z,6.81
2022-11-05T03:14:21.969Z,6.80
2022-11-05T03:15:21.750Z,6.79
2022-11-05T03:16:21.517Z,6.79
2022-11-05T03:17:41.801Z,6.76
2022-11-05T03:18:21.560Z,6.76
2022-11-05T03:19:21.829Z,6.77
2022-11-05T03:20:21.620Z,6.76
2022-11-05T03:21:21.384Z,6.76
2022-11-05T03:22:21.686Z,6.73
2022-11-05T03:23:21.470Z,6.73
2022-11-05T03:24:21.733Z,6.71
2022-11-05T03:25:21.511Z,6.73
2022-11-05T03:26:21.807Z,6.74
2022-11-05T03:27:41.602Z,6.73
2022-11-05T03:28:21.321Z,6.73
2022-11-05T03:29:21.583Z,6.70
2022-11-05T03:30:21.372Z,6.71
2022-11-05T03:31:21.643Z,6.70
2022-11-05T03:32:21.443Z,6.67
2022-11-05T03:33:21.684Z,6.69
2022-11-05T03:34:21.454Z,6.67
2022-11-05T03:35:21.761Z,6.69
2022-11-05T03:36:21.527Z,6.66
2022-11-05T03:37:41.334Z,6.66
2022-11-05T03:38:21.595Z,6.67
2022-11-05T03:39:21.426Z,6.67
2022-11-05T03:40:21.686Z,6.67
2022-11-05T03:41:21.435Z,6.69
2022-11-05T03:42:21.197Z,6.69
2022-11-05T03:43:21.435Z,6.69
2022-11-05T03:44:21.179Z,6.69
2022-11-05T03:45:21.435Z,6.67
2022-11-05T03:46:21.168Z,6.67
2022-11-05T03:47:41.433Z,6.66
2022-11-05T03:48:21.196Z,6.64
2022-11-05T03:49:22.200Z,6.64
2022-11-05T03:50:22.599Z,6.66
2022-11-05T03:51:21.411Z,6.62
2022-11-05T03:52:21.153Z,6.62
2022-11-05T03:53:21.389Z,6.61
2022-11-05T03:54:21.130Z,6.61
2022-11-05T03:55:21.472Z,6.59
2022-11-05T03:56:21.124Z,6.61
2022-11-05T03:57:41.390Z,6.59
2022-11-05T03:58:21.123Z,6.58
2022-11-05T03:59:21.369Z,6.56
2022-11-05T04:00:22.058Z,6.55
2022-11-05T04:01:22.886Z,6.54
2022-11-05T04:02:21.438Z,6.54
2022-11-05T04:03:21.371Z,6.54
2022-11-05T04:04:21.122Z,6.54
2022-11-05T04:05:21.364Z,6.54
2022-11-05T04:06:21.101Z,6.52
2022-11-05T04:07:41.441Z,6.51
2022-11-05T04:08:21.101Z,6.51
2022-11-05T04:09:21.342Z,6.46
2022-11-05T04:10:21.085Z,6.48
2022-11-05T04:11:21.314Z,6.44
2022-11-05T04:12:21.063Z,6.41
2022-11-05T04:13:21.315Z,6.43
2022-11-05T04:14:21.043Z,6.43
2022-11-05T04:15:21.285Z,6.43
2022-11-05T04:16:22.468Z,6.43
2022-11-05T04:17:41.294Z,6.41
2022-11-05T04:18:21.014Z,6.41
2022-11-05T04:19:26.041Z,6.43
2022-11-05T04:20:21.987Z,6.43
2022-11-05T04:21:21.236Z,6.43
2022-11-05T04:22:20.994Z,6.43
2022-11-05T04:23:20.727Z,6.41
2022-11-05T04:24:20.996Z,6.41
2022-11-05T04:25:20.736Z,6.41
2022-11-05T04:26:20.978Z,6.41
2022-11-05T04:27:40.736Z,6.40
2022-11-05T04:28:20.966Z,6.40
2022-11-05T04:29:20.721Z,6.38
2022-11-05T04:30:20.973Z,6.36
2022-11-05T04:31:20.737Z,6.38
2022-11-05T04:32:20.978Z,6.38
2022-11-05T04:33:20.705Z,6.38
2022-11-05T04:34:20.967Z,6.37
2022-11-05T04:35:20.708Z,6.37
2022-11-05T04:36:20.947Z,6.33
2022-11-05T04:37:40.707Z,6.36
2022-11-05T04:38:20.932Z,6.36
2022-11-05T04:39:20.679Z,6.33
2022-11-05T04:40:20.940Z,6.34
2022-11-05T04:41:20.690Z,6.31
2022-11-05T04:42:20.913Z,6.31
2022-11-05T04:43:21.156Z,6.30
2022-11-05T04:44:20.907Z,6.30
2022-11-05T04:45:20.644Z,6.30
2022-11-05T04:46:22.337Z,6.28
2022-11-05T04:47:40.655Z,6.27
2022-11-05T04:48:20.897Z,6.27
2022-11-05T04:49:20.629Z,6.25
2022-11-05T04:50:20.871Z,6.22
2022-11-05T04:51:20.619Z,6.21
2022-11-05T04:52:20.871Z,6.22
2022-11-05T04:53:20.605Z,6.21
2022-11-05T04:54:20.851Z,6.21
2022-11-05T04:55:20.599Z,6.19
2022-11-05T04:56:20.843Z,6.18
2022-11-05T04:57:40.593Z,6.18
2022-11-05T04:58:20.828Z,6.17
2022-11-05T04:59:20.582Z,6.14
2022-11-05T05:00:20.823Z,6.15
2022-11-05T05:01:20.682Z,6.15
2022-11-05T05:02:20.906Z,6.14
2022-11-05T05:03:20.553Z,6.12
2022-11-05T05:04:20.792Z,6.11
2022-11-05T05:05:20.549Z,6.08
2022-11-05T05:06:20.284Z,6.11
2022-11-05T05:07:40.560Z,6.11
2022-11-05T05:08:20.401Z,6.11
2022-11-05T05:09:20.531Z,6.09
2022-11-05T05:10:20.777Z,6.09
2022-11-05T05:11:20.524Z,6.11
2022-11-05T05:12:20.275Z,6.11
2022-11-05T05:13:20.539Z,6.09
2022-11-05T05:14:20.264Z,6.09
2022-11-05T05:15:20.533Z,6.09
2022-11-05T05:16:20.268Z,6.09
2022-11-05T05:17:40.536Z,6.09
2022-11-05T05:18:20.262Z,6.08
2022-11-05T05:19:20.514Z,6.09
2022-11-05T05:20:20.292Z,6.06
2022-11-05T05:21:20.511Z,6.04
2022-11-05T05:22:20.266Z,6.03
2022-11-05T05:23:20.516Z,6.03
2022-11-05T05:24:20.264Z,6.04
2022-11-05T05:25:20.507Z,6.04
2022-11-05T05:26:20.254Z,6.03
2022-11-05T05:27:40.505Z,6.03
2022-11-05T05:28:20.255Z,6.03
2022-11-05T05:29:20.484Z,6.01
2022-11-05T05:30:20.252Z,6.03
2022-11-05T05:31:20.502Z,6.03
2022-11-05T05:32:20.238Z,6.00
2022-11-05T05:33:21.943Z,6.00
2022-11-05T05:34:20.248Z,6.03
2022-11-05T05:35:20.498Z,6.01
2022-11-05T05:36:20.238Z,6.00
2022-11-05T05:37:40.511Z,6.00
2022-11-05T05:38:20.237Z,5.97
2022-11-05T05:39:20.468Z,5.97
2022-11-05T05:40:20.222Z,5.94
2022-11-05T05:41:19.974Z,5.94
2022-11-05T05:42:20.230Z,5.93
2022-11-05T05:43:19.969Z,5.93
2022-11-05T05:44:20.192Z,5.91
2022-11-05T05:45:19.950Z,5.89
2022-11-05T05:46:20.220Z,5.89
2022-11-05T05:47:39.971Z,5.89
2022-11-05T05:48:20.206Z,5.86
2022-11-05T05:49:19.940Z,5.89
2022-11-05T05:50:20.188Z,5.83
2022-11-05T05:51:19.941Z,5.82
2022-11-05T05:52:20.196Z,5.82
2022-11-05T05:53:19.930Z,5.79
2022-11-05T05:54:20.182Z,5.79
2022-11-05T05:55:19.928Z,5.79
2022-11-05T05:56:20.162Z,5.79
2022-11-05T05:57:39.926Z,5.78
2022-11-05T05:58:20.157Z,5.78
2022-11-05T05:59:19.888Z,5.78
2022-11-05T06:00:20.145Z,5.75
2022-11-05T06:01:20.359Z,5.75
2022-11-05T06:02:20.211Z,5.71
2022-11-05T06:03:19.869Z,5.68
2022-11-05T06:04:20.104Z,5.68
2022-11-05T06:05:19.854Z,5.68
2022-11-05T06:06:20.137Z,5.68
2022-11-05T06:07:39.854Z,5.68
2022-11-05T06:08:20.082Z,5.68
2022-11-05T06:09:19.822Z,5.71
2022-11-05T06:10:20.123Z,5.68
2022-11-05T06:11:19.814Z,5.68
2022-11-05T06:12:20.108Z,5.68
2022-11-05T06:13:19.828Z,5.71
2022-11-05T06:14:20.081Z,5.68
2022-11-05T06:15:19.830Z,5.68
2022-11-05T06:16:20.066Z,5.68
2022-11-05T06:17:39.816Z,5.71
2022-11-05T06:18:20.084Z,5.68
2022-11-05T06:19:19.783Z,5.71
2022-11-05T06:20:20.033Z,5.72
2022-11-05T06:21:19.776Z,5.68
2022-11-05T06:22:20.036Z,5.68
2022-11-05T06:23:19.756Z,5.64
2022-11-05T06:24:19.504Z,5.63
2022-11-05T06:25:19.746Z,5.63
2022-11-05T06:26:20.006Z,5.63
2022-11-05T06:27:39.785Z,5.63
2022-11-05T06:28:19.486Z,5.61
2022-11-05T06:29:19.736Z,5.60
2022-11-05T06:30:19.476Z,5.61
2022-11-05T06:31:19.720Z,5.64
2022-11-05T06:32:19.468Z,5.64
2022-11-05T06:33:19.713Z,5.63
2022-11-05T06:34:19.460Z,5.60
2022-11-05T06:35:19.694Z,5.60
2022-11-05T06:36:19.454Z,5.57
2022-11-05T06:37:39.710Z,5.57
2022-11-05T06:38:19.443Z,5.57
2022-11-05T06:39:19.686Z,5.56
2022-11-05T06:40:19.448Z,5.56
2022-11-05T06:41:19.686Z,5.58
2022-11-05T06:42:19.629Z,5.58
2022-11-05T06:43:19.666Z,5.61
2022-11-05T06:44:19.418Z,5.61
2022-11-05T06:45:19.650Z,5.60
2022-11-05T06:46:19.399Z,5.60
2022-11-05T06:47:39.645Z,5.61
2022-11-05T06:48:19.377Z,5.61
2022-11-05T06:49:19.617Z,5.64
2022-11-05T06:50:19.358Z,5.64
2022-11-05T06:51:19.604Z,5.65
2022-11-05T06:52:19.363Z,5.65
2022-11-05T06:53:19.600Z,5.65
2022-11-05T06:54:19.339Z,5.65
2022-11-05T06:55:19.578Z,5.67
2022-11-05T06:56:19.330Z,5.67
2022-11-05T06:57:39.586Z,5.72
2022-11-05T06:58:19.309Z,5.72
2022-11-05T06:59:19.550Z,5.72
2022-11-05T07:00:19.292Z,5.74
2022-11-05T07:01:19.658Z,5.74
2022-11-05T07:02:19.334Z,5.74
2022-11-05T07:03:19.515Z,5.74
2022-11-05T07:04:19.250Z,5.75
2022-11-05T07:05:19.502Z,5.76
2022-11-05T07:06:19.243Z,5.78
2022-11-05T07:07:39.491Z,5.81
2022-11-05T07:08:19.220Z,5.81
2022-11-05T07:09:19.462Z,5.83
2022-11-05T07:10:19.204Z,5.82
2022-11-05T07:11:19.434Z,5.85
2022-11-05T07:12:19.191Z,5.83
2022-11-05T07:13:19.432Z,5.83
2022-11-05T07:14:19.180Z,5.85
2022-11-05T07:15:19.435Z,5.85
2022-11-05T07:16:19.184Z,5.89
2022-11-05T07:17:39.461Z,5.90
2022-11-05T07:18:19.175Z,5.90
2022-11-05T07:19:19.439Z,5.91
2022-11-05T07:20:19.185Z,5.91
2022-11-05T07:21:18.941Z,5.93
2022-11-05T07:22:19.184Z,5.93
2022-11-05T07:23:18.926Z,5.94
2022-11-05T07:24:19.206Z,5.94
2022-11-05T07:25:18.915Z,5.94
2022-11-05T07:26:19.160Z,5.94
2022-11-05T07:27:38.916Z,6.01
2022-11-05T07:28:19.146Z,6.06
2022-11-05T07:29:18.884Z,6.14
2022-11-05T07:30:19.125Z,6.15
2022-11-05T07:31:18.873Z,6.14
2022-11-05T07:32:19.125Z,6.15
2022-11-05T07:33:18.865Z,6.14
2022-11-05T07:34:19.097Z,6.15
2022-11-05T07:35:18.853Z,6.17
2022-11-05T07:36:19.105Z,6.19
2022-11-05T07:37:38.888Z,6.25
2022-11-05T07:38:19.110Z,6.27
2022-11-05T07:39:18.855Z,6.30
2022-11-05T07:40:19.097Z,6.30
2022-11-05T07:41:18.836Z,6.33
2022-11-05T07:42:19.102Z,6.36
2022-11-05T07:43:18.845Z,6.36
2022-11-05T07:44:19.092Z,6.38
2022-11-05T07:45:18.840Z,6.41
2022-11-05T07:46:19.079Z,6.44
2022-11-05T07:47:38.854Z,6.51
2022-11-05T07:48:19.067Z,6.52
2022-11-05T07:49:18.816Z,6.54
2022-11-05T07:50:19.060Z,6.56
2022-11-05T07:51:18.810Z,6.59
2022-11-05T07:52:19.058Z,6.62
2022-11-05T07:53:18.789Z,6.66
2022-11-05T07:54:19.040Z,6.67
2022-11-05T07:55:18.781Z,6.71
2022-11-05T07:56:19.037Z,6.73
2022-11-05T07:57:38.787Z,6.77
2022-11-05T07:58:19.020Z,6.79
2022-11-05T07:59:18.762Z,6.81
2022-11-05T08:00:19.002Z,6.85
2022-11-05T08:01:18.888Z,6.88
2022-11-05T08:02:19.246Z,6.92
2022-11-05T08:03:19.578Z,6.94
2022-11-05T08:04:19.520Z,6.98
2022-11-05T08:05:20.318Z,7.02
2022-11-05T08:06:20.102Z,7.05
2022-11-05T08:07:38.916Z,7.09
2022-11-05T08:08:19.353Z,7.12
2022-11-05T08:09:19.348Z,7.16
2022-11-05T08:10:20.225Z,7.21
2022-11-05T08:11:18.598Z,7.28
2022-11-05T08:12:20.122Z,7.37
2022-11-05T08:13:20.073Z,7.55
2022-11-05T08:14:19.913Z,7.79
2022-11-05T08:15:19.365Z,7.89
2022-11-05T08:16:20.002Z,8.01
2022-11-05T08:17:38.839Z,8.08
2022-11-05T08:18:18.649Z,8.18
2022-11-05T08:19:19.881Z,8.29
2022-11-05T08:20:19.364Z,8.44
2022-11-05T08:21:19.171Z,8.53
2022-11-05T08:22:20.122Z,8.68
2022-11-05T08:23:20.050Z,9.20
2022-11-05T08:24:19.361Z,10.11
2022-11-05T08:25:20.133Z,10.97
2022-11-05T08:26:19.381Z,11.25
2022-11-05T08:27:38.745Z,10.92
2022-11-05T08:28:19.451Z,10.68
2022-11-05T08:29:19.756Z,10.45
2022-11-05T08:30:19.269Z,10.41
2022-11-05T08:31:19.833Z,10.53
2022-11-05T08:32:19.356Z,10.42
2022-11-05T08:33:19.964Z,10.34
2022-11-05T08:34:18.236Z,10.36
2022-11-05T08:35:18.499Z,10.53
2022-11-05T08:36:18.227Z,11.03
2022-11-05T08:37:38.488Z,11.88
2022-11-05T08:38:19.787Z,12.50
2022-11-05T08:39:20.084Z,13.63
2022-11-05T08:40:18.455Z,14.57
2022-11-05T08:41:19.665Z,15.46
2022-11-05T08:42:19.949Z,16.12
2022-11-05T08:43:18.871Z,16.86
2022-11-05T08:44:19.250Z,17.38
2022-11-05T08:45:19.887Z,17.87
2022-11-05T08:46:19.180Z,18.26
2022-11-05T08:47:39.988Z,18.70
2022-11-05T08:48:18.301Z,18.98
2022-11-05T08:49:18.570Z,19.25
2022-11-05T08:51:29.322Z,19.46
2022-11-05T08:51:35.533Z,19.33
2022-11-05T08:52:36.295Z,19.65
2022-11-05T08:53:36.079Z,19.71
2022-11-05T08:54:35.393Z,19.84
2022-11-05T08:55:36.101Z,19.95
2022-11-05T08:56:35.622Z,20.33
2022-11-05T08:57:54.683Z,20.79
2022-11-05T08:58:35.867Z,20.91
2022-11-05T08:59:35.624Z,21.04
2022-11-05T09:00:34.996Z,20.77
2022-11-05T09:01:36.359Z,20.64
2022-11-05T09:02:35.475Z,20.92
2022-11-05T09:03:34.802Z,21.28
2022-11-05T09:04:35.924Z,21.34
2022-11-05T09:05:35.390Z,21.54
2022-11-05T09:06:35.955Z,21.75
2022-11-05T09:08:00.525Z,21.80
2022-11-05T09:10:02.058Z,21.94
2022-11-05T09:10:06.866Z,21.94
2022-11-05T09:11:07.618Z,21.58
2022-11-05T09:12:12.646Z,21.29
2022-11-05T09:13:13.080Z,20.76
2022-11-05T09:14:08.373Z,20.26
2022-11-05T09:15:07.603Z,19.76
2022-11-05T09:16:07.353Z,19.58
2022-11-05T09:17:07.601Z,19.47
2022-11-05T09:18:27.860Z,19.00
2022-11-05T09:19:08.539Z,18.85
2022-11-05T09:20:07.348Z,18.60
2022-11-05T09:21:07.594Z,18.23
2022-11-05T09:22:07.347Z,17.78
2022-11-05T09:23:07.743Z,17.36
2022-11-05T09:24:07.340Z,17.04
2022-11-05T09:25:07.579Z,16.67
2022-11-05T09:26:08.274Z,16.23
2022-11-05T09:27:07.586Z,16.00
2022-11-05T09:28:27.356Z,15.54
2022-11-05T09:29:14.025Z,15.38
2022-11-05T09:30:08.353Z,15.25
2022-11-05T09:31:06.670Z,15.27
2022-11-05T09:32:06.656Z,15.41
2022-11-05T09:33:06.636Z,15.72
2022-11-05T09:34:06.625Z,15.87
2022-11-05T09:35:06.605Z,16.60
2022-11-05T09:36:06.668Z,17.03
2022-11-05T09:37:06.589Z,17.16
2022-11-05T09:38:26.617Z,17.66
2022-11-05T09:39:06.558Z,17.78
2022-11-05T09:40:06.576Z,17.90
2022-11-05T09:41:06.550Z,18.45
2022-11-05T09:42:06.568Z,19.08
2022-11-05T09:44:12.733Z,19.22
2022-11-05T09:44:18.476Z,20.24
2022-11-05T09:45:24.711Z,20.72
2022-11-05T09:46:18.459Z,20.72
2022-11-05T09:47:18.218Z,20.59
2022-11-05T09:48:39.946Z,20.64
2022-11-05T09:49:18.272Z,20.62
2022-11-05T10:00:14.905Z,20.99
2022-11-05T10:00:21.149Z,24.18
2022-11-05T10:01:20.769Z,22.75
2022-11-05T10:02:21.901Z,21.43
2022-11-05T10:03:21.648Z,20.41
2022-11-05T10:04:21.925Z,19.61
2022-11-05T10:05:20.966Z,18.72
2022-11-05T10:06:22.028Z,17.97
2022-11-05T10:07:40.341Z,17.22
2022-11-05T10:08:22.089Z,16.91
2022-11-05T10:09:20.482Z,16.53
2022-11-05T10:10:21.710Z,16.08
2022-11-05T10:11:20.928Z,15.67
2022-11-05T10:12:20.381Z,15.19
2022-11-05T10:13:20.141Z,15.02
2022-11-05T10:14:20.388Z,14.69
2022-11-05T10:15:20.124Z,14.54
2022-11-05T10:16:20.371Z,14.32
2022-11-05T10:17:40.134Z,14.17
2022-11-05T10:18:20.367Z,14.17
2022-11-05T10:19:20.114Z,14.10
2022-11-05T10:20:20.367Z,14.10
2022-11-05T10:21:37.695Z,14.09
2022-11-05T10:22:21.413Z,14.00
2022-11-05T10:23:20.125Z,14.03
2022-11-05T10:24:21.370Z,14.02
2022-11-05T10:25:20.108Z,14.02
2022-11-05T10:26:20.368Z,13.99
2022-11-05T10:27:40.134Z,14.03
2022-11-05T10:28:20.365Z,13.96
2022-11-05T10:29:20.117Z,13.84
2022-11-05T10:30:19.882Z,13.81
2022-11-05T10:31:21.561Z,13.81
2022-11-05T10:32:20.818Z,13.73
2022-11-05T10:33:21.067Z,13.64
2022-11-05T10:34:20.827Z,13.59
2022-11-05T10:35:20.958Z,13.55
2022-11-05T10:36:19.909Z,13.49
2022-11-05T10:37:41.113Z,13.38
2022-11-05T10:38:19.907Z,13.20
2022-11-05T10:39:20.187Z,13.01
2022-11-05T10:40:20.453Z,12.95
2022-11-05T10:41:20.970Z,12.95
2022-11-05T10:42:20.130Z,12.95
2022-11-05T10:43:21.623Z,12.92
2022-11-05T10:44:19.930Z,12.87
2022-11-05T10:45:20.190Z,12.86
2022-11-05T10:46:19.945Z,12.89
2022-11-05T10:47:40.215Z,12.83
2022-11-05T10:48:19.932Z,12.85
2022-11-05T10:49:19.684Z,12.83
2022-11-05T10:50:19.974Z,12.87
2022-11-05T10:51:19.703Z,12.90
2022-11-05T10:52:19.963Z,12.87
2022-11-05T10:53:19.734Z,12.83
2022-11-05T10:54:19.949Z,12.82
2022-11-05T10:55:19.711Z,12.79
2022-11-05T10:56:19.960Z,12.75
2022-11-05T10:57:39.741Z,12.74
2022-11-05T10:58:19.955Z,12.72
2022-11-05T10:59:19.715Z,12.72
2022-11-05T11:00:20.029Z,12.74
2022-11-05T11:01:19.763Z,12.77
2022-11-05T11:02:19.993Z,12.83
2022-11-05T11:03:19.694Z,12.85
2022-11-05T11:04:19.946Z,12.89
2022-11-05T11:05:21.188Z,12.92
2022-11-05T11:06:20.988Z,12.96
2022-11-05T11:07:39.798Z,13.00
2022-11-05T11:08:20.550Z,12.96
2022-11-05T11:09:20.483Z,12.92
2022-11-05T11:10:21.091Z,12.92
2022-11-05T11:11:21.412Z,12.89
2022-11-05T11:12:20.229Z,12.90
2022-11-05T11:13:20.520Z,12.86
2022-11-05T11:14:21.338Z,12.90
2022-11-05T11:15:20.357Z,12.87
2022-11-05T11:16:20.467Z,12.82
2022-11-05T11:17:38.938Z,12.78
2022-11-05T11:18:19.069Z,12.74
2022-11-05T11:19:20.355Z,12.77
2022-11-05T11:20:19.711Z,12.79
2022-11-05T11:21:18.974Z,12.83
2022-11-05T11:22:20.232Z,12.92
2022-11-05T11:23:20.973Z,12.97
2022-11-05T11:24:20.763Z,13.05
2022-11-05T11:25:21.053Z,13.19
2022-11-05T11:26:20.066Z,13.63
2022-11-05T11:28:48.164Z,14.83
2022-11-05T11:28:52.943Z,15.72
2022-11-05T11:29:53.701Z,15.97
2022-11-05T11:30:53.450Z,16.08
2022-11-05T11:31:53.682Z,16.14
2022-11-05T11:32:53.429Z,15.86
2022-11-05T11:33:53.683Z,15.64
2022-11-05T11:34:53.428Z,15.50
2022-11-05T11:35:53.691Z,15.32
2022-11-05T11:36:53.437Z,15.07
2022-11-05T11:38:13.705Z,14.91
2022-11-05T11:38:53.525Z,14.80
2022-11-05T11:39:53.700Z,14.70
2022-11-05T11:40:53.465Z,14.62
2022-11-05T11:41:53.718Z,14.54
2022-11-05T11:42:53.453Z,14.57
2022-11-05T11:43:53.686Z,14.57
2022-11-05T11:44:53.447Z,14.61
2022-11-05T11:45:53.684Z,15.06
2022-11-05T11:49:12.859Z,16.12
2022-11-05T11:49:40.190Z,17.72
2022-11-05T11:50:19.316Z,17.86
2022-11-05T11:51:18.220Z,17.92
2022-11-05T11:52:18.473Z,17.78
2022-11-05T11:53:18.231Z,17.56
2022-11-05T11:54:18.490Z,17.21
2022-11-05T11:55:18.257Z,16.97
2022-11-05T11:56:18.489Z,16.61
2022-11-05T11:57:18.244Z,16.28
2022-11-05T11:58:18.490Z,15.92
2022-11-05T12:00:07.176Z,15.54
2022-11-05T12:00:18.536Z,15.34
2022-11-05T12:01:18.344Z,15.07
2022-11-05T12:02:18.098Z,14.78
2022-11-05T12:03:18.650Z,14.60
2022-11-05T12:04:18.494Z,14.50
2022-11-05T12:05:18.326Z,14.40
2022-11-05T12:06:18.116Z,14.37
2022-11-05T12:07:18.326Z,14.32
2022-11-05T12:08:18.076Z,14.33
2022-11-05T12:09:38.354Z,14.27
2022-11-05T12:10:18.211Z,14.24
2022-11-05T12:11:18.357Z,14.18
2022-11-05T12:12:18.230Z,14.15
2022-11-05T12:13:18.346Z,14.10
2022-11-05T12:14:18.087Z,14.04
2022-11-05T12:15:19.063Z,14.02
2022-11-05T12:16:19.525Z,13.95
2022-11-05T12:17:19.790Z,13.99
2022-11-05T12:18:18.106Z,13.99
2022-11-05T12:19:38.343Z,14.04
2022-11-05T12:20:18.101Z,14.06
2022-11-05T12:21:34.623Z,14.10
2022-11-05T12:22:19.078Z,14.14
2022-11-05T12:23:17.839Z,14.21
2022-11-05T12:24:18.099Z,14.24
2022-11-05T12:25:17.830Z,14.32
2022-11-05T12:26:18.093Z,14.39
2022-11-05T12:27:17.830Z,14.51
2022-11-05T12:28:18.084Z,14.45
2022-11-05T12:29:37.856Z,14.45
2022-11-05T12:30:18.090Z,14.40
2022-11-05T12:31:17.831Z,14.45
2022-11-05T12:32:18.118Z,14.50
2022-11-05T12:33:17.954Z,14.51
2022-11-05T12:34:18.093Z,14.47
2022-11-05T12:35:17.836Z,14.39
2022-11-05T12:36:18.075Z,14.28
2022-11-05T12:37:17.843Z,14.22
2022-11-05T12:38:18.090Z,14.14
2022-11-05T12:39:37.848Z,14.00
2022-11-05T12:40:18.074Z,13.92
2022-11-05T12:41:17.825Z,13.84
2022-11-05T12:42:18.086Z,13.78
2022-11-05T12:43:18.493Z,13.73
2022-11-05T12:44:17.585Z,13.69
2022-11-05T12:45:18.780Z,13.66
2022-11-05T12:46:17.572Z,13.59
2022-11-05T12:47:18.786Z,13.51
2022-11-05T12:48:17.597Z,13.46
2022-11-05T12:49:37.858Z,13.45
2022-11-05T12:50:17.592Z,13.41
2022-11-05T12:51:17.829Z,13.39
2022-11-05T12:52:18.523Z,13.38
2022-11-05T12:53:18.767Z,13.36
2022-11-05T12:54:17.570Z,13.38
2022-11-05T12:55:18.758Z,13.39
2022-11-05T12:56:17.567Z,13.36
2022-11-05T12:57:17.813Z,13.38
2022-11-05T12:58:17.566Z,13.33
2022-11-05T12:59:37.815Z,13.33
2022-11-05T13:00:18.499Z,13.36
2022-11-05T13:01:17.960Z,13.38
2022-11-05T13:02:17.674Z,13.36
2022-11-05T13:03:17.805Z,13.39
2022-11-05T13:04:17.554Z,13.41
2022-11-05T13:05:18.736Z,13.44
2022-11-05T13:06:17.536Z,13.39
2022-11-05T13:07:17.760Z,13.36
2022-11-05T13:08:17.521Z,13.36
2022-11-05T13:09:37.794Z,13.36
2022-11-05T13:10:18.476Z,13.32
2022-11-05T13:11:18.720Z,13.30
2022-11-05T13:12:17.532Z,13.32
2022-11-05T13:13:17.279Z,13.36
2022-11-05T13:14:17.518Z,13.38
2022-11-05T13:15:17.284Z,13.42
2022-11-05T13:16:17.518Z,13.45
2022-11-05T13:17:17.757Z,13.52
2022-11-05T13:18:17.510Z,13.54
2022-11-05T13:19:37.279Z,13.60
2022-11-05T13:20:18.525Z,13.63